Time;durP1;ratioP1;P1;durP2;ratioP2;P2;SDS_P1;SDS_P2;PMS_P1;PMS_P2;Temp;Humidity;BMP_temperature;BMP_pressure;BME280_temperature;BME280_humidity;BME280_pressure;Samples;Min_cycle;Max_cycle;Signal;HPM_P1;HPM_P2
2022/10/11 00:02:04;;;;;;;19.23;4.97;;;13.80;99.90;;;;;;5053145;28;20253;-77
2022/10/11 00:04:29;;;;;;;10.73;4.83;;;13.90;99.90;;;;;;5055050;28;20203;-76
2022/10/11 00:06:55;;;;;;;8.53;4.57;;;13.60;99.90;;;;;;5052631;28;20192;-77
2022/10/11 00:09:20;;;;;;;16.27;4.90;;;13.70;99.90;;;;;;5054494;28;20360;-77
2022/10/11 00:11:46;;;;;;;12.00;4.40;;;13.70;99.90;;;;;;5051962;28;20184;-77
2022/10/11 00:14:11;;;;;;;16.20;4.43;;;13.80;99.90;;;;;;5051100;28;20695;-77
2022/10/11 00:16:39;;;;;;;10.20;4.47;;;13.80;99.90;;;;;;5051203;28;20184;-77
2022/10/11 00:19:05;;;;;;;12.73;4.33;;;13.80;99.90;;;;;;5051073;28;20266;-76
2022/10/11 00:21:30;;;;;;;11.17;4.50;;;13.90;99.90;;;;;;5033064;28;20847;-77
2022/10/11 00:23:56;;;;;;;8.13;4.50;;;13.80;99.90;;;;;;5049586;28;20184;-77
2022/10/11 00:26:22;;;;;;;9.60;4.90;;;13.70;99.90;;;;;;5051094;28;20188;-77
2022/10/11 00:28:51;;;;;;;13.67;4.83;;;13.70;99.90;;;;;;5049556;28;20295;-77
2022/10/11 00:31:17;;;;;;;20.43;4.93;;;13.70;99.90;;;;;;5049582;28;20194;-77
2022/10/11 00:33:43;;;;;;;8.90;4.90;;;13.70;99.90;;;;;;5049294;28;20425;-78
2022/10/11 00:36:12;;;;;;;16.80;5.33;;;13.70;99.90;;;;;;5050566;28;20425;-78
2022/10/11 00:38:38;;;;;;;11.60;5.10;;;13.70;99.90;;;;;;5048959;28;20200;-77
2022/10/11 00:41:04;;;;;;;9.00;4.60;;;13.80;99.90;;;;;;5048526;28;20441;-76
2022/10/11 00:43:31;;;;;;;11.80;4.53;;;13.80;99.90;;;;;;5049932;28;20261;-76
2022/10/11 00:45:56;;;;;;;12.03;5.00;;;13.80;99.90;;;;;;5050160;28;20489;-78
2022/10/11 00:48:44;;;;;;;17.20;5.57;;;13.80;99.90;;;;;;5050358;28;20994;-77
2022/10/11 00:51:18;;;;;;;9.53;4.90;;;13.90;99.90;;;;;;5047539;28;20191;-77
2022/10/11 00:53:46;;;;;;;9.50;5.20;;;13.70;99.90;;;;;;5050186;28;20423;-77
2022/10/11 00:56:39;;;;;;;16.43;5.50;;;13.90;99.90;;;;;;5050190;28;20930;-78
2022/10/11 00:59:13;;;;;;;14.83;5.10;;;13.80;99.90;;;;;;5048089;28;21030;-77
2022/10/11 01:01:39;;;;;;;13.27;5.70;;;13.70;99.90;;;;;;5049882;28;20527;-77
2022/10/11 01:04:05;;;;;;;11.93;4.77;;;13.70;99.90;;;;;;5049803;28;20934;-77
2022/10/11 01:06:32;;;;;;;13.73;5.00;;;13.70;99.90;;;;;;5049792;28;20426;-77
2022/10/11 01:08:59;;;;;;;12.80;5.03;;;13.70;99.90;;;;;;5048781;28;20215;-77
2022/10/11 01:11:28;;;;;;;21.83;5.80;;;13.70;99.90;;;;;;5047981;28;21013;-77
2022/10/11 01:14:04;;;;;;;18.10;6.30;;;13.80;99.90;;;;;;5048572;28;20447;-77
2022/10/11 01:16:30;;;;;;;15.83;6.33;;;13.80;99.90;;;;;;5049973;28;20420;-78
2022/10/11 01:19:33;;;;;;;15.07;5.10;;;13.80;99.90;;;;;;5048138;28;20426;-77
2022/10/11 01:22:23;;;;;;;12.37;5.70;;;13.90;99.90;;;;;;5048270;28;20248;-77
2022/10/11 01:25:06;;;;;;;8.63;5.33;;;13.90;99.90;;;;;;5049688;28;20496;-76
2022/10/11 01:27:43;;;;;;;19.40;7.00;;;13.90;99.90;;;;;;5047761;28;20434;-76
2022/10/11 01:30:49;;;;;;;25.07;6.50;;;13.90;99.90;;;;;;5049664;28;20920;-77
2022/10/11 01:33:40;;;;;;;18.40;6.60;;;13.90;99.90;;;;;;5006958;28;21251;-76
2022/10/11 01:36:26;;;;;;;16.37;5.93;;;13.90;99.90;;;;;;5006643;28;20423;-76
2022/10/11 01:39:11;;;;;;;20.07;5.90;;;13.90;99.90;;;;;;5034685;28;20426;-77
2022/10/11 01:41:46;;;;;;;17.00;5.80;;;13.90;99.90;;;;;;5049396;28;20939;-77
2022/10/11 01:44:13;;;;;;;15.17;5.43;;;13.70;99.90;;;;;;5047656;28;20441;-77
2022/10/11 01:46:39;;;;;;;8.93;5.40;;;13.80;99.90;;;;;;5049346;28;20422;-77
2022/10/11 01:49:06;;;;;;;12.10;7.07;;;13.70;99.90;;;;;;5048698;28;20841;-79
2022/10/11 01:51:39;;;;;;;19.97;6.17;;;13.70;99.90;;;;;;5047650;28;20939;-78
2022/10/11 01:54:29;;;;;;;12.60;5.23;;;13.70;99.90;;;;;;5048926;28;20502;-78
2022/10/11 01:57:28;;;;;;;16.50;6.23;;;13.70;99.90;;;;;;5049028;28;20410;-76
2022/10/11 02:00:12;;;;;;;12.60;6.00;;;13.70;99.90;;;;;;5048682;28;20422;-78
2022/10/11 02:02:53;;;;;;;9.83;5.17;;;13.70;99.90;;;;;;5052406;28;20433;-79
2022/10/11 02:05:30;;;;;;;13.87;6.67;;;13.70;99.90;;;;;;5061873;28;20932;-77
2022/10/11 02:08:21;;;;;;;13.80;6.30;;;13.70;99.90;;;;;;5063482;28;20469;-77
2022/10/11 02:11:03;;;;;;;16.30;6.00;;;13.80;99.90;;;;;;5064170;28;20430;-78
2022/10/11 02:13:38;;;;;;;16.27;5.73;;;13.80;99.90;;;;;;5061651;28;20418;-79
2022/10/11 02:16:11;;;;;;;16.30;6.47;;;13.80;99.90;;;;;;5051797;28;20517;-79
2022/10/11 02:18:42;;;;;;;13.23;6.50;;;13.80;99.90;;;;;;5033861;28;20430;-78
2022/10/11 02:21:11;;;;;;;10.73;6.60;;;13.80;99.90;;;;;;5050199;28;20922;-78
2022/10/11 02:24:07;;;;;;;14.20;5.70;;;13.80;99.90;;;;;;5051180;28;20429;-78
2022/10/11 02:26:34;;;;;;;15.83;6.40;;;13.80;99.90;;;;;;5050971;28;20805;-77
2022/10/11 02:29:03;;;;;;;19.30;7.03;;;13.70;99.90;;;;;;5052631;28;20480;-77
2022/10/11 02:31:32;;;;;;;17.03;7.00;;;13.60;99.90;;;;;;5052457;28;20429;-77
2022/10/11 02:34:14;;;;;;;12.50;6.70;;;13.50;99.90;;;;;;5052148;28;20828;-77
2022/10/11 02:36:45;;;;;;;20.97;7.07;;;13.60;99.90;;;;;;5050964;28;20422;-77
2022/10/11 02:39:16;;;;;;;16.50;7.30;;;13.60;99.90;;;;;;5052266;28;20460;-77
2022/10/11 02:41:42;;;;;;;20.47;6.50;;;13.60;99.90;;;;;;5052657;28;20417;-78
2022/10/11 02:44:36;;;;;;;16.03;6.77;;;13.60;99.90;;;;;;5051075;28;20501;-78
2022/10/11 02:47:03;;;;;;;11.90;6.47;;;13.60;99.90;;;;;;5051497;28;20522;-78
2022/10/11 02:49:30;;;;;;;26.30;6.83;;;13.70;99.90;;;;;;5052854;28;21267;-77
2022/10/11 02:51:56;;;;;;;10.43;6.80;;;13.70;99.90;;;;;;5052533;28;20471;-77
2022/10/11 02:54:26;;;;;;;14.13;7.13;;;13.70;99.90;;;;;;5051851;28;20508;-76
2022/10/11 02:56:51;;;;;;;18.80;7.73;;;13.70;99.90;;;;;;5051851;28;20850;-77
2022/10/11 02:59:17;;;;;;;12.70;6.90;;;13.70;99.90;;;;;;5051874;28;20511;-77
2022/10/11 03:01:43;;;;;;;15.93;7.43;;;13.70;99.90;;;;;;5051831;28;20844;-77
2022/10/11 03:04:08;;;;;;;15.70;7.53;;;13.70;99.90;;;;;;5051953;28;20211;-78
2022/10/11 03:06:34;;;;;;;16.17;8.20;;;13.80;99.90;;;;;;5051587;28;20207;-76
2022/10/11 03:09:00;;;;;;;15.47;7.40;;;13.60;99.90;;;;;;5051758;28;20211;-75
2022/10/11 03:11:25;;;;;;;12.80;7.50;;;13.60;99.90;;;;;;5051543;28;20187;-77
2022/10/11 03:13:51;;;;;;;13.03;7.67;;;13.70;99.90;;;;;;5051530;28;20184;-77
2022/10/11 03:16:17;;;;;;;15.10;7.13;;;13.70;99.90;;;;;;5051075;28;20186;-78
2022/10/11 03:18:42;;;;;;;19.57;7.47;;;13.70;99.90;;;;;;5052576;28;20194;-77
2022/10/11 03:21:08;;;;;;;13.30;8.00;;;13.80;99.90;;;;;;5051040;28;20285;-77
2022/10/11 03:23:34;;;;;;;12.07;7.73;;;13.80;99.90;;;;;;5050976;28;20223;-76
2022/10/11 03:25:59;;;;;;;16.20;7.30;;;13.90;99.90;;;;;;5016308;28;20211;-76
2022/10/11 03:28:25;;;;;;;29.03;7.80;;;13.90;99.90;;;;;;5049339;28;20208;-76
2022/10/11 03:30:51;;;;;;;15.73;8.27;;;13.90;99.90;;;;;;5050979;28;20180;-77
2022/10/11 03:33:17;;;;;;;18.60;8.00;;;13.80;99.90;;;;;;5049567;28;20176;-76
2022/10/11 03:35:44;;;;;;;16.27;7.20;;;13.90;99.90;;;;;;5048782;28;21105;-77
2022/10/11 03:38:16;;;;;;;15.33;7.40;;;13.90;99.90;;;;;;5051121;28;20418;-77
2022/10/11 03:40:42;;;;;;;18.00;8.07;;;13.90;99.90;;;;;;5050868;28;20418;-76
2022/10/11 03:43:08;;;;;;;16.27;7.50;;;13.90;99.90;;;;;;5049330;28;20426;-76
2022/10/11 03:45:34;;;;;;;16.03;7.50;;;13.90;99.90;;;;;;5051005;28;20438;-78
2022/10/11 03:48:00;;;;;;;17.10;7.10;;;13.90;99.90;;;;;;5051000;28;20458;-77
2022/10/11 03:50:26;;;;;;;19.87;7.60;;;13.90;99.90;;;;;;5049553;28;20774;-78
2022/10/11 03:52:51;;;;;;;14.73;7.40;;;13.90;99.90;;;;;;5049337;28;20183;-76
2022/10/11 03:55:17;;;;;;;15.80;6.90;;;13.90;99.90;;;;;;5050809;28;20210;-77
2022/10/11 03:57:43;;;;;;;15.13;8.40;;;13.80;99.90;;;;;;5049221;28;20196;-77
2022/10/11 04:00:09;;;;;;;15.50;7.23;;;13.80;99.90;;;;;;5050782;28;20195;-77
2022/10/11 04:02:34;;;;;;;13.83;7.10;;;13.90;99.90;;;;;;5050654;28;20632;-76
2022/10/11 04:05:01;;;;;;;24.00;9.57;;;13.90;99.90;;;;;;5050459;28;20474;-77
2022/10/11 04:07:27;;;;;;;19.30;8.27;;;13.90;99.90;;;;;;5050658;28;20237;-77
2022/10/11 04:09:53;;;;;;;11.87;8.40;;;13.80;99.90;;;;;;5051783;28;20549;-77
2022/10/11 04:12:18;;;;;;;12.70;6.50;;;13.90;99.90;;;;;;5048999;28;20436;-76
2022/10/11 04:14:44;;;;;;;16.20;8.53;;;13.90;99.90;;;;;;5049462;28;20254;-77
2022/10/11 04:17:10;;;;;;;14.93;7.00;;;13.80;99.90;;;;;;5049462;28;20555;-77
2022/10/11 04:19:36;;;;;;;22.33;9.13;;;13.80;99.90;;;;;;5049863;28;20191;-77
2022/10/11 04:22:06;;;;;;;17.37;8.40;;;13.80;99.90;;;;;;5050654;28;20180;-78
2022/10/11 04:24:31;;;;;;;15.73;8.43;;;13.80;99.90;;;;;;5051177;28;20210;-76
2022/10/11 04:26:57;;;;;;;22.00;7.80;;;13.80;99.90;;;;;;5049233;28;20418;-76
2022/10/11 04:29:22;;;;;;;17.37;8.90;;;13.80;99.90;;;;;;5050732;28;20969;-76
2022/10/11 04:31:48;;;;;;;13.60;9.13;;;13.80;99.90;;;;;;5049551;28;20183;-76
2022/10/11 04:34:14;;;;;;;27.37;9.40;;;13.90;99.90;;;;;;5049995;28;20664;-75
2022/10/11 04:36:40;;;;;;;16.10;9.90;;;13.80;99.90;;;;;;5050468;28;20298;-77
2022/10/11 04:39:06;;;;;;;17.87;9.50;;;13.80;99.90;;;;;;5016267;28;20431;-78
2022/10/11 04:41:32;;;;;;;22.37;10.80;;;14.00;99.90;;;;;;5050793;28;20606;-78
2022/10/11 04:43:58;;;;;;;23.73;9.27;;;13.90;99.90;;;;;;5032424;28;20935;-77
2022/10/11 04:46:24;;;;;;;22.47;10.27;;;13.80;99.90;;;;;;5048162;28;20410;-79
2022/10/11 04:48:50;;;;;;;21.73;10.30;;;13.80;99.90;;;;;;5048618;28;20457;-78
2022/10/11 04:51:16;;;;;;;22.93;10.03;;;13.80;99.90;;;;;;5049362;28;20418;-79
2022/10/11 04:53:42;;;;;;;21.77;11.40;;;13.80;99.90;;;;;;5050085;28;20178;-79
2022/10/11 04:56:13;;;;;;;18.23;10.00;;;13.80;99.90;;;;;;5049357;28;20466;-78
2022/10/11 04:58:40;;;;;;;22.80;11.67;;;13.90;99.90;;;;;;5050688;28;20671;-80
2022/10/11 05:01:06;;;;;;;20.87;12.07;;;13.80;99.90;;;;;;5049101;28;20422;-78
2022/10/11 05:03:32;;;;;;;30.27;14.13;;;13.80;99.90;;;;;;5049045;28;20465;-79
2022/10/11 05:05:59;;;;;;;29.07;16.47;;;13.80;99.90;;;;;;5048478;28;20446;-78
2022/10/11 05:08:25;;;;;;;37.60;16.43;;;13.80;99.90;;;;;;5050459;28;20547;-80
2022/10/11 05:11:02;;;;;;;41.53;18.33;;;13.80;99.90;;;;;;5048954;28;20446;-77
2022/10/11 05:13:29;;;;;;;39.37;17.20;;;13.70;99.90;;;;;;5015701;28;20748;-80
2022/10/11 05:15:55;;;;;;;36.00;18.70;;;13.70;99.90;;;;;;5048391;28;20430;-80
2022/10/11 05:18:21;;;;;;;33.73;16.80;;;13.80;99.90;;;;;;5049737;28;20426;-80
2022/10/11 05:20:47;;;;;;;41.10;17.63;;;13.70;99.90;;;;;;5048417;28;20188;-80
2022/10/11 05:23:13;;;;;;;41.50;18.70;;;13.80;99.90;;;;;;5049142;28;20924;-79
2022/10/11 05:25:38;;;;;;;49.37;19.27;;;13.80;99.90;;;;;;5030617;28;20457;-80
2022/10/11 05:28:04;;;;;;;48.57;20.57;;;13.80;99.90;;;;;;5030497;28;20222;-80
2022/10/11 05:30:30;;;;;;;43.90;20.43;;;13.90;99.90;;;;;;5046916;28;20216;-81
2022/10/11 05:32:55;;;;;;;51.37;20.80;;;13.80;99.90;;;;;;5046981;28;20184;-80
2022/10/11 05:35:21;;;;;;;60.53;22.27;;;13.80;99.90;;;;;;5030396;28;20203;-80
2022/10/11 05:37:46;;;;;;;58.07;22.83;;;13.80;99.90;;;;;;5046968;28;20191;-80
2022/10/11 05:40:13;;;;;;;57.83;24.33;;;13.80;99.90;;;;;;5046872;28;20191;-80
2022/10/11 05:42:38;;;;;;;43.97;22.37;;;13.80;99.90;;;;;;5047226;28;20221;-80
2022/10/11 05:45:05;;;;;;;69.33;23.33;;;13.90;99.90;;;;;;5046900;28;21418;-80
2022/10/11 05:47:31;;;;;;;55.70;23.13;;;13.80;99.90;;;;;;5031389;28;20269;-78
2022/10/11 05:49:57;;;;;;;63.53;24.53;;;13.70;99.90;;;;;;5048024;28;20465;-78
2022/10/11 05:52:23;;;;;;;62.63;23.90;;;13.70;99.90;;;;;;5030401;28;20959;-79
2022/10/11 05:54:48;;;;;;;65.97;24.60;;;13.80;99.90;;;;;;5047111;28;20211;-79
2022/10/11 05:57:14;;;;;;;67.60;26.87;;;13.80;99.90;;;;;;5047196;28;20201;-79
2022/10/11 05:59:40;;;;;;;64.73;25.70;;;13.80;99.90;;;;;;5048801;28;20209;-81
2022/10/11 06:02:08;;;;;;;79.57;25.80;;;13.80;99.90;;;;;;5014304;28;20810;-79
2022/10/11 06:04:38;;;;;;;70.03;23.03;;;13.80;99.90;;;;;;5047452;28;20219;-80
2022/10/11 06:07:04;;;;;;;63.50;23.07;;;13.80;99.90;;;;;;5048726;28;20994;-80
2022/10/11 06:09:30;;;;;;;108.80;27.20;;;13.80;99.90;;;;;;5048823;28;20516;-78
2022/10/11 06:11:56;;;;;;;81.53;26.70;;;13.80;99.90;;;;;;5048971;28;20426;-79
2022/10/11 06:14:22;;;;;;;107.17;28.13;;;13.80;99.90;;;;;;5030908;28;20457;-77
2022/10/11 06:16:48;;;;;;;89.43;28.03;;;13.80;99.90;;;;;;5032640;28;20188;-76
2022/10/11 06:19:13;;;;;;;96.77;28.07;;;13.80;99.90;;;;;;5048109;28;20436;-75
2022/10/11 06:21:39;;;;;;;107.23;31.53;;;13.80;99.90;;;;;;5030306;28;20681;-76
2022/10/11 06:24:05;;;;;;;92.33;28.23;;;13.80;99.90;;;;;;5046897;28;20207;-77
2022/10/11 06:26:31;;;;;;;104.27;28.87;;;13.80;99.90;;;;;;5048047;28;20213;-77
2022/10/11 06:28:57;;;;;;;91.17;29.73;;;13.80;99.90;;;;;;5046438;28;20484;-77
2022/10/11 06:31:23;;;;;;;109.77;30.40;;;13.80;99.90;;;;;;5046547;28;20563;-76
2022/10/11 06:33:51;;;;;;;125.03;29.40;;;13.80;99.90;;;;;;5046958;28;20430;-80
2022/10/11 06:36:17;;;;;;;120.57;30.00;;;13.80;99.90;;;;;;5048681;28;20507;-81
2022/10/11 06:38:43;;;;;;;101.27;28.90;;;13.80;99.90;;;;;;5047286;28;20533;-79
2022/10/11 06:41:16;;;;;;;119.87;30.93;;;13.80;99.90;;;;;;5030433;28;20911;-78
2022/10/11 06:43:42;;;;;;;75.37;25.23;;;13.80;99.90;;;;;;5047057;28;20454;-77
2022/10/11 06:46:08;;;;;;;117.23;28.77;;;13.80;99.90;;;;;;5046886;28;20893;-77
2022/10/11 06:48:34;;;;;;;89.47;25.97;;;13.80;99.90;;;;;;5046595;28;20475;-78
2022/10/11 06:50:59;;;;;;;96.57;26.23;;;13.80;99.90;;;;;;5046514;28;20201;-78
2022/10/11 06:53:26;;;;;;;87.23;26.70;;;13.70;99.90;;;;;;5046401;28;20423;-78
2022/10/11 06:55:52;;;;;;;91.87;26.83;;;13.80;99.90;;;;;;5046455;28;20211;-78
2022/10/11 06:58:17;;;;;;;81.17;24.20;;;13.80;99.90;;;;;;5029743;28;20442;-78
2022/10/11 07:00:43;;;;;;;81.70;24.33;;;13.80;99.90;;;;;;5046462;28;20183;-78
2022/10/11 07:03:08;;;;;;;89.90;23.47;;;13.80;99.90;;;;;;5013860;28;20241;-78
2022/10/11 07:05:34;;;;;;;82.30;26.37;;;13.80;99.90;;;;;;5047840;28;20208;-79
2022/10/11 07:08:00;;;;;;;90.57;25.43;;;13.80;99.90;;;;;;5045899;28;20207;-78
2022/10/11 07:10:26;;;;;;;96.10;27.47;;;13.80;99.90;;;;;;5031644;28;20194;-77
2022/10/11 07:12:52;;;;;;;95.93;27.43;;;13.80;99.90;;;;;;5051104;28;20414;-78
2022/10/11 07:15:18;;;;;;;91.03;25.90;;;13.80;99.90;;;;;;5049637;28;20525;-76
2022/10/11 07:17:44;;;;;;;77.80;26.13;;;13.80;99.90;;;;;;5033071;28;20195;-79
2022/10/11 07:20:11;;;;;;;74.47;25.77;;;13.80;99.90;;;;;;5049704;28;20218;-79
2022/10/11 07:22:36;;;;;;;70.77;26.10;;;13.80;99.90;;;;;;5049367;28;20419;-79
2022/10/11 07:25:03;;;;;;;91.17;30.40;;;13.80;99.90;;;;;;5049438;28;20968;-80
2022/10/11 07:27:29;;;;;;;73.00;27.47;;;13.80;99.90;;;;;;5050745;28;20183;-79
2022/10/11 07:29:54;;;;;;;72.93;27.33;;;13.70;99.90;;;;;;5049009;28;20465;-79
2022/10/11 07:32:20;;;;;;;80.47;28.43;;;13.80;99.90;;;;;;5048955;28;20317;-78
2022/10/11 07:34:45;;;;;;;44.50;23.30;;;13.80;99.90;;;;;;5048601;28;20195;-79
2022/10/11 07:37:11;;;;;;;59.30;24.00;;;13.80;99.90;;;;;;5031879;28;20197;-78
2022/10/11 07:39:36;;;;;;;67.67;24.57;;;13.80;99.90;;;;;;5031855;28;20601;-79
2022/10/11 07:42:03;;;;;;;74.87;28.40;;;13.70;99.90;;;;;;5048559;28;20194;-78
2022/10/11 07:44:29;;;;;;;81.80;27.97;;;13.70;99.90;;;;;;5048136;28;20306;-79
2022/10/11 07:46:54;;;;;;;93.80;31.00;;;13.70;99.90;;;;;;5049593;28;20513;-79
2022/10/11 07:49:20;;;;;;;73.00;27.70;;;13.70;99.90;;;;;;5049692;28;20250;-79
2022/10/11 07:51:45;;;;;;;70.33;27.63;;;13.70;99.90;;;;;;5048193;28;20186;-79
2022/10/11 07:54:11;;;;;;;63.17;25.77;;;13.70;99.90;;;;;;5048389;28;20215;-78
2022/10/11 07:56:38;;;;;;;74.90;30.70;;;13.60;99.90;;;;;;5031340;28;20280;-79
2022/10/11 07:59:05;;;;;;;87.63;31.93;;;13.70;99.90;;;;;;5049581;28;20191;-79
2022/10/11 08:01:31;;;;;;;67.10;29.37;;;13.90;99.90;;;;;;5050414;28;20425;-80
2022/10/11 08:03:57;;;;;;;84.70;32.40;;;13.70;99.90;;;;;;5048082;28;20492;-78
2022/10/11 08:06:28;;;;;;;98.77;32.10;;;13.70;99.90;;;;;;5047887;28;20411;-78
2022/10/11 08:08:53;;;;;;;83.87;32.00;;;13.80;99.90;;;;;;5049754;28;20465;-78
2022/10/11 08:11:20;;;;;;;63.77;28.80;;;13.80;99.90;;;;;;5032482;28;20415;-79
2022/10/11 08:13:46;;;;;;;68.03;29.80;;;13.70;99.90;;;;;;5052786;28;20534;-80
2022/10/11 08:16:12;;;;;;;56.70;26.90;;;13.70;99.90;;;;;;5016674;28;20422;-79
2022/10/11 08:18:38;;;;;;;55.93;27.30;;;13.70;99.90;;;;;;5055152;28;20196;-79
2022/10/11 08:21:12;;;;;;;67.73;30.53;;;13.70;99.90;;;;;;5045879;28;20438;-78
2022/10/11 08:23:38;;;;;;;79.73;31.53;;;13.70;99.90;;;;;;5047860;28;20434;-79
2022/10/11 08:26:04;;;;;;;79.10;32.07;;;13.70;99.90;;;;;;5065538;28;20449;-79
2022/10/11 08:28:30;;;;;;;80.60;32.00;;;13.70;99.90;;;;;;5058152;28;20584;-79
2022/10/11 08:30:56;;;;;;;75.90;32.10;;;13.70;99.90;;;;;;5051946;28;20635;-79
2022/10/11 08:33:23;;;;;;;67.33;32.53;;;13.70;99.90;;;;;;5033354;28;20434;-79
2022/10/11 08:35:50;;;;;;;80.67;36.83;;;13.80;99.90;;;;;;5054355;28;21020;-79
2022/10/11 08:38:16;;;;;;;88.57;35.87;;;13.80;99.90;;;;;;5049568;28;20430;-78
2022/10/11 08:40:46;;;;;;;108.87;34.73;;;13.80;99.90;;;;;;5049144;28;20427;-78
2022/10/11 08:43:19;;;;;;;78.07;33.30;;;13.80;99.90;;;;;;5047469;28;20572;-78
2022/10/11 08:45:49;;;;;;;94.40;34.10;;;13.80;99.90;;;;;;5047253;28;20511;-78
2022/10/11 08:48:24;;;;;;;82.13;33.57;;;13.80;99.90;;;;;;5049100;28;20541;-79
2022/10/11 08:50:53;;;;;;;81.57;33.43;;;13.80;99.90;;;;;;5048876;28;20420;-78
2022/10/11 08:53:25;;;;;;;70.87;30.63;;;13.90;99.90;;;;;;5047864;28;20838;-79
2022/10/11 08:55:54;;;;;;;67.73;31.90;;;13.90;99.90;;;;;;5047664;28;21335;-78
2022/10/11 08:58:27;;;;;;;60.00;29.47;;;13.80;99.90;;;;;;5049396;28;20477;-77
2022/10/11 09:00:56;;;;;;;83.33;31.60;;;14.10;99.90;;;;;;5048908;28;20825;-78
2022/10/11 09:03:44;;;;;;;60.77;30.30;;;14.10;99.90;;;;;;5049051;28;20458;-79
2022/10/11 09:06:22;;;;;;;70.13;29.83;;;14.10;99.90;;;;;;5047336;28;20529;-79
2022/10/11 09:09:17;;;;;;;63.83;28.50;;;14.20;99.90;;;;;;5048673;28;20454;-78
2022/10/11 09:11:51;;;;;;;53.13;28.60;;;14.30;99.90;;;;;;5047030;28;20447;-78
2022/10/11 09:14:25;;;;;;;64.97;28.13;;;14.40;99.90;;;;;;5048531;28;20506;-78
2022/10/11 09:17:00;;;;;;;60.47;26.67;;;14.40;99.90;;;;;;5048330;28;20421;-78
2022/10/11 09:19:47;;;;;;;59.60;28.07;;;14.50;99.90;;;;;;5047904;28;20424;-78
2022/10/11 09:22:31;;;;;;;61.80;26.90;;;14.60;99.90;;;;;;5048341;28;20423;-78
2022/10/11 09:25:23;;;;;;;60.77;26.50;;;14.70;99.90;;;;;;5048252;28;20434;-78
2022/10/11 09:28:12;;;;;;;50.17;23.17;;;14.90;99.90;;;;;;5046336;28;20499;-78
2022/10/11 09:30:45;;;;;;;49.30;22.77;;;15.00;99.90;;;;;;5046505;28;20472;-80
2022/10/11 09:33:16;;;;;;;51.83;22.40;;;15.10;99.90;;;;;;5045712;28;20422;-78
2022/10/11 09:35:46;;;;;;;47.47;19.93;;;15.10;99.90;;;;;;5047503;28;20434;-79
2022/10/11 09:38:31;;;;;;;45.03;21.53;;;15.20;99.90;;;;;;5029759;28;20841;-78
2022/10/11 09:41:29;;;;;;;39.90;18.30;;;15.40;99.90;;;;;;5048023;28;20421;-79
2022/10/11 09:43:54;;;;;;;35.70;19.43;;;15.50;99.90;;;;;;5024408;28;20435;-78
2022/10/11 09:46:30;;;;;;;30.60;18.13;;;15.50;99.90;;;;;;5048238;28;20418;-79
2022/10/11 09:48:58;;;;;;;31.87;18.63;;;15.60;99.90;;;;;;5048176;28;20695;-78
2022/10/11 09:51:26;;;;;;;30.30;18.37;;;15.60;99.90;;;;;;5049106;28;20415;-78
2022/10/11 09:54:05;;;;;;;38.97;20.63;;;15.70;99.90;;;;;;5046921;28;20841;-80
2022/10/11 09:56:33;;;;;;;32.53;18.03;;;15.70;99.90;;;;;;5049150;28;20419;-78
2022/10/11 09:59:28;;;;;;;41.33;17.30;;;15.80;99.90;;;;;;5047088;28;20439;-79
2022/10/11 10:02:13;;;;;;;33.33;16.73;;;15.70;99.90;;;;;;5032381;28;21054;-78
2022/10/11 10:04:57;;;;;;;27.17;15.83;;;15.70;99.90;;;;;;5048318;28;20496;-78
2022/10/11 10:07:23;;;;;;;26.77;15.73;;;15.60;99.90;;;;;;5048131;28;20468;-79
2022/10/11 10:09:49;;;;;;;40.67;18.17;;;15.60;99.90;;;;;;5046349;28;20470;-79
2022/10/11 10:12:25;;;;;;;37.23;20.77;;;15.60;99.90;;;;;;5048072;28;20964;-78
2022/10/11 10:15:06;;;;;;;41.37;21.77;;;15.60;99.90;;;;;;5046576;28;20438;-77
2022/10/11 10:17:32;;;;;;;43.33;19.77;;;15.50;99.90;;;;;;5046215;28;20427;-77
2022/10/11 10:19:59;;;;;;;35.70;19.93;;;15.40;99.90;;;;;;5047528;28;20459;-76
2022/10/11 10:22:34;;;;;;;39.93;22.27;;;15.30;99.90;;;;;;5013175;28;20432;-76
2022/10/11 10:25:06;;;;;;;47.60;23.10;;;15.30;99.90;;;;;;5047354;28;20434;-76
2022/10/11 10:27:31;;;;;;;44.37;22.10;;;15.20;99.90;;;;;;5029514;28;20531;-77
2022/10/11 10:30:06;;;;;;;45.43;23.93;;;15.20;99.90;;;;;;5029681;28;20543;-77
2022/10/11 10:33:02;;;;;;;40.23;23.90;;;15.10;99.90;;;;;;5047351;28;20186;-76
2022/10/11 10:35:54;;;;;;;47.07;23.73;;;15.00;99.90;;;;;;5047434;28;20496;-76
2022/10/11 10:38:42;;;;;;;48.00;22.50;;;15.10;99.90;;;;;;5044644;28;20484;-76
2022/10/11 10:41:11;;;;;;;37.10;22.57;;;15.00;99.90;;;;;;5049396;28;20513;-78
2022/10/11 10:43:39;;;;;;;45.77;23.63;;;15.00;99.90;;;;;;5048884;28;20452;-79
2022/10/11 10:46:26;;;;;;;55.33;24.97;;;15.00;99.90;;;;;;5051040;28;20447;-81
2022/10/11 10:49:29;;;;;;;34.17;20.37;;;14.90;99.90;;;;;;5050293;28;20455;-80
2022/10/11 10:52:01;;;;;;;44.50;24.07;;;14.90;99.90;;;;;;5051731;28;20496;-79
2022/10/11 10:54:59;;;;;;;45.67;25.10;;;14.90;99.90;;;;;;5051793;28;20457;-77
2022/10/11 10:57:35;;;;;;;39.47;25.00;;;14.90;99.90;;;;;;5050903;28;20524;-80
2022/10/11 11:00:12;;;;;;;49.03;25.07;;;14.90;99.90;;;;;;5050749;28;20426;-78
2022/10/11 11:02:59;;;;;;;45.27;25.47;;;14.90;99.90;;;;;;5050389;28;20771;-78
2022/10/11 11:05:44;;;;;;;37.37;22.00;;;14.90;99.90;;;;;;5051828;28;20437;-78
2022/10/11 11:08:41;;;;;;;40.80;24.70;;;15.00;99.90;;;;;;5051868;28;20455;-79
2022/10/11 11:11:26;;;;;;;45.53;22.87;;;15.00;99.90;;;;;;5049840;28;20506;-80
2022/10/11 11:14:17;;;;;;;48.20;25.30;;;15.00;99.90;;;;;;5052133;28;20518;-78
2022/10/11 11:17:12;;;;;;;50.80;24.80;;;14.90;99.90;;;;;;5050973;28;20755;-80
2022/10/11 11:20:04;;;;;;;49.23;22.70;;;14.90;99.90;;;;;;5049786;28;20462;-78
2022/10/11 11:23:08;;;;;;;30.80;19.53;;;14.90;99.90;;;;;;5049495;28;20509;-79
2022/10/11 11:26:10;;;;;;;49.53;24.73;;;15.00;99.90;;;;;;5033329;28;20446;-78
2022/10/11 11:29:02;;;;;;;49.93;24.10;;;15.00;99.90;;;;;;5049207;28;20526;-78
2022/10/11 11:32:04;;;;;;;44.13;22.47;;;15.10;99.90;;;;;;5049298;28;20422;-78
2022/10/11 11:34:53;;;;;;;34.93;21.57;;;15.10;99.90;;;;;;5051927;28;20567;-79
2022/10/11 11:37:27;;;;;;;36.03;22.23;;;15.10;99.90;;;;;;5050597;28;20411;-79
2022/10/11 11:40:06;;;;;;;36.30;21.20;;;15.20;99.90;;;;;;5050674;28;20465;-79
2022/10/11 11:42:42;;;;;;;48.33;22.90;;;15.30;99.90;;;;;;5050786;28;20949;-78
2022/10/11 11:45:44;;;;;;;35.70;22.40;;;15.30;99.90;;;;;;5049764;28;20434;-78
2022/10/11 11:48:23;;;;;;;43.57;21.53;;;15.40;99.90;;;;;;5041528;28;20830;-77
2022/10/11 11:51:02;;;;;;;37.70;23.10;;;15.30;99.90;;;;;;5050714;28;20744;-80
2022/10/11 11:53:58;;;;;;;40.53;22.53;;;15.40;99.90;;;;;;5048732;28;20429;-78
2022/10/11 11:56:30;;;;;;;33.30;20.77;;;15.40;99.90;;;;;;5049937;28;20399;-80
2022/10/11 11:59:09;;;;;;;48.00;19.73;;;15.30;99.90;;;;;;5050733;28;20437;-77
2022/10/11 12:02:14;;;;;;;38.40;20.40;;;15.40;99.90;;;;;;5050225;28;20442;-78
2022/10/11 12:04:43;;;;;;;37.50;21.30;;;15.40;99.90;;;;;;5048429;28;20462;-79
2022/10/11 12:07:15;;;;;;;50.53;22.73;;;15.40;99.90;;;;;;5048557;28;20418;-80
2022/10/11 12:09:45;;;;;;;43.07;21.30;;;15.40;99.90;;;;;;5048454;28;20470;-78
2022/10/11 12:12:29;;;;;;;35.30;19.80;;;15.50;99.90;;;;;;5048617;28;20779;-78
2022/10/11 12:15:25;;;;;;;44.40;21.13;;;15.50;99.90;;;;;;5049749;28;21006;-79
2022/10/11 12:17:56;;;;;;;35.00;19.27;;;15.50;99.90;;;;;;5049011;28;20448;-79
2022/10/11 12:20:25;;;;;;;34.30;18.00;;;15.50;99.90;;;;;;5049329;28;20490;-78
2022/10/11 12:22:57;;;;;;;29.23;17.60;;;15.60;99.90;;;;;;5031303;28;20446;-78
2022/10/11 12:25:35;;;;;;;32.40;18.27;;;15.60;99.90;;;;;;5049522;28;20467;-79
2022/10/11 12:28:22;;;;;;;28.80;17.23;;;15.60;99.90;;;;;;5048935;28;20465;-77
2022/10/11 12:30:52;;;;;;;45.33;16.33;;;15.70;99.90;;;;;;5047022;28;20473;-79
2022/10/11 12:33:29;;;;;;;28.93;16.10;;;15.70;99.90;;;;;;5047508;28;20453;-80
2022/10/11 12:35:55;;;;;;;26.37;17.00;;;15.70;99.90;;;;;;5047500;28;20442;-79
2022/10/11 12:38:24;;;;;;;32.27;18.80;;;15.70;99.90;;;;;;5048074;28;21040;-80
2022/10/11 12:40:59;;;;;;;39.63;17.13;;;15.70;99.90;;;;;;5032247;28;20666;-78
2022/10/11 12:43:32;;;;;;;38.53;17.07;;;15.60;99.90;;;;;;5031953;28;20419;-78
2022/10/11 12:46:29;;;;;;;38.23;16.87;;;15.70;99.90;;;;;;5047300;28;20458;-79
2022/10/11 12:49:34;;;;;;;32.27;18.90;;;15.70;99.90;;;;;;5048389;28;20458;-79
2022/10/11 12:52:25;;;;;;;22.57;16.43;;;15.60;99.90;;;;;;5047274;28;20518;-78
2022/10/11 12:54:57;;;;;;;40.30;19.57;;;15.60;99.90;;;;;;5048683;28;20497;-78
2022/10/11 12:57:47;;;;;;;36.53;19.10;;;15.60;99.90;;;;;;5048782;28;20467;-79